Time;durP1;ratioP1;P1;durP2;ratioP2;P2;SDS_P1;SDS_P2;PMS_P1;PMS_P2;Temp;Humidity;BMP_temperature;BMP_pressure;BME280_temperature;BME280_humidity;BME280_pressure;Samples;Min_cycle;Max_cycle;Signal;HPM_P1;HPM_P2
2022/03/24 00:02:00;;;;;;;101.42;53.80;;;;;;;-3.25;64.15;100982.06;1761253;80;20946;-59
2022/03/24 00:04:27;;;;;;;100.22;53.70;;;;;;;-3.25;64.23;100978.23;1778045;79;21058;-59
2022/03/24 00:06:54;;;;;;;92.00;51.85;;;;;;;-3.22;64.29;100986.88;1775200;79;21053;-59
2022/03/24 00:09:20;;;;;;;94.57;53.20;;;;;;;-3.21;64.35;100982.63;1770893;80;21689;-59
2022/03/24 00:11:47;;;;;;;101.67;52.00;;;;;;;-3.21;64.42;100980.93;1781619;80;21518;-59
2022/03/24 00:14:16;;;;;;;98.82;53.80;;;;;;;-3.20;64.42;100981.79;1780661;78;21069;-59
2022/03/24 00:16:43;;;;;;;98.90;57.88;;;;;;;-3.23;64.50;100980.42;1773005;80;21034;-59
2022/03/24 00:19:11;;;;;;;110.22;57.83;;;;;;;-3.27;64.57;100974.79;1771079;78;21509;-59
2022/03/24 00:21:38;;;;;;;;;;;;;;;-3.31;64.61;100978.92;1791439;79;21347;-59
2022/03/24 00:24:05;;;;;;;101.17;58.67;;;;;;;-3.35;64.81;100971.14;1775034;80;20534;-59
2022/03/24 00:26:32;;;;;;;108.65;61.55;;;;;;;-3.38;64.81;100972.78;1777737;80;20895;-59
2022/03/24 00:28:58;;;;;;;108.33;59.53;;;;;;;-3.41;64.89;100965.03;1770230;78;21101;-59
2022/03/24 00:31:25;;;;;;;127.85;63.23;;;;;;;-3.42;64.88;100967.52;1782909;78;21119;-59
2022/03/24 00:33:52;;;;;;;114.47;63.30;;;;;;;-3.41;64.98;100970.14;1786511;80;23181;-59
2022/03/24 00:36:20;;;;;;;106.25;55.63;;;;;;;-3.39;65.09;100965.95;1778099;80;21024;-59
2022/03/24 00:38:46;;;;;;;108.25;61.35;;;;;;;-3.41;65.12;100961.20;1760891;80;21009;-59
2022/03/24 00:41:15;;;;;;;104.75;60.40;;;;;;;-3.41;65.19;100963.75;1778108;80;20983;-59
2022/03/24 00:43:42;;;;;;;96.95;56.28;;;;;;;-3.39;65.22;100963.40;1715245;83;21017;-59
2022/03/24 00:46:09;;;;;;;;;;;;;;;-3.38;65.27;100963.84;1737169;82;21617;-59
2022/03/24 00:48:35;;;;;;;107.80;61.15;;;;;;;-3.34;65.37;100963.51;1731088;82;20179;-59
2022/03/24 00:51:03;;;;;;;117.10;65.15;;;;;;;-3.37;65.37;100956.63;1722598;82;21076;-59
2022/03/24 00:53:29;;;;;;;111.37;60.25;;;;;;;-3.38;65.53;100960.01;1723884;83;21506;-59
2022/03/24 00:55:56;;;;;;;120.60;64.20;;;;;;;-3.37;65.68;100951.52;1724616;81;22419;-59
2022/03/24 00:58:24;;;;;;;109.27;60.30;;;;;;;-3.33;65.73;100956.70;1721930;81;21531;-59
2022/03/24 01:00:53;;;;;;;117.80;62.58;;;;;;;-3.32;65.76;100956.77;1711583;81;20998;-60
2022/03/24 01:03:21;;;;;;;118.75;63.15;;;;;;;-3.28;65.75;100957.71;1719143;81;21009;-59
2022/03/24 01:05:48;;;;;;;110.17;63.33;;;;;;;-3.25;65.84;100952.69;1722004;81;20973;-60
2022/03/24 01:08:17;;;;;;;105.92;58.63;;;;;;;-3.24;65.82;100949.33;1737006;82;21484;-59
2022/03/24 01:10:43;;;;;;;102.15;59.38;;;;;;;-3.25;65.79;100948.47;1750146;80;21591;-60
2022/03/24 01:13:11;;;;;;;98.42;56.73;;;;;;;-3.26;65.81;100949.69;1728622;80;20904;-60
2022/03/24 01:15:37;;;;;;;96.35;58.87;;;;;;;-3.29;65.81;100939.39;1726044;82;21507;-59
2022/03/24 01:18:05;;;;;;;95.77;56.02;;;;;;;-3.29;65.91;100943.22;1739241;80;21054;-59
2022/03/24 01:20:32;;;;;;;101.20;55.33;;;;;;;-3.28;65.96;100944.94;1746626;80;21063;-60
2022/03/24 01:22:59;;;;;;;94.85;55.33;;;;;;;-3.26;65.99;100935.64;1755826;80;21084;-59
2022/03/24 01:25:32;;;;;;;96.37;54.57;;;;;;;-3.30;65.93;100937.25;1724973;80;21563;-59
2022/03/24 01:27:58;;;;;;;96.67;54.75;;;;;;;-3.34;65.95;100946.05;1744976;80;21718;-60
2022/03/24 01:30:25;;;;;;;107.17;57.50;;;;;;;-3.38;65.99;100940.86;1732628;82;21039;-60
2022/03/24 01:32:52;;;;;;;92.80;54.98;;;;;;;-3.38;66.20;100942.13;1757867;80;21008;-59
2022/03/24 01:35:19;;;;;;;92.15;53.85;;;;;;;-3.37;66.29;100933.64;1735378;80;21091;-60
2022/03/24 01:37:46;;;;;;;96.10;54.15;;;;;;;-3.35;66.39;100931.14;1755684;81;20933;-60
2022/03/24 01:40:14;;;;;;;100.38;54.13;;;;;;;-3.34;66.47;100926.48;1727862;81;20947;-59
2022/03/24 01:42:43;;;;;;;88.52;50.20;;;;;;;-3.33;66.42;100931.17;1755952;80;20918;-60
2022/03/24 01:45:11;;;;;;;108.00;52.80;;;;;;;-3.35;66.45;100927.73;1740333;82;21026;-59
2022/03/24 01:47:38;;;;;;;94.67;51.65;;;;;;;-3.37;66.46;100931.08;1734632;80;21448;-59
2022/03/24 01:50:07;;;;;;;96.78;52.95;;;;;;;-3.38;66.58;100926.81;1721895;82;21014;-60
2022/03/24 01:52:34;;;;;;;93.82;53.92;;;;;;;-3.39;66.60;100925.48;1738234;81;21032;-59
2022/03/24 01:55:04;;;;;;;98.67;55.85;;;;;;;-3.39;66.75;100920.37;1734096;82;20955;-59
2022/03/24 01:57:31;;;;;;;97.92;55.43;;;;;;;-3.39;66.73;100922.53;1763207;80;20895;-59
2022/03/24 02:00:00;;;;;;;107.85;59.63;;;;;;;-3.38;66.75;100919.15;1722984;82;24280;-59
2022/03/24 02:02:27;;;;;;;103.62;57.08;;;;;;;-3.38;66.82;100916.59;1762144;79;20980;-59
2022/03/24 02:04:54;;;;;;;95.03;53.53;;;;;;;-3.40;66.80;100920.78;1759642;80;21108;-60
2022/03/24 02:07:21;;;;;;;105.45;55.12;;;;;;;-3.45;66.80;100918.92;1749415;81;20974;-60
2022/03/24 02:09:47;;;;;;;96.40;52.50;;;;;;;-3.50;66.83;100922.64;1762416;80;21542;-60
2022/03/24 02:12:14;;;;;;;97.97;55.92;;;;;;;-3.55;66.89;100916.53;1760863;80;22231;-59
2022/03/24 02:14:42;;;;;;;104.57;57.33;;;;;;;-3.58;67.03;100915.17;1763230;80;20961;-59
2022/03/24 02:17:10;;;;;;;96.92;56.00;;;;;;;-3.61;67.17;100917.63;1755935;81;21935;-59
2022/03/24 02:19:36;;;;;;;98.58;57.00;;;;;;;-3.62;67.25;100915.88;1756681;80;21016;-60
2022/03/24 02:22:15;;;;;;;93.90;55.33;;;;;;;-3.59;67.45;100913.42;1772426;80;21017;-59
2022/03/24 02:24:43;;;;;;;99.17;55.83;;;;;;;-3.58;67.43;100916.45;1760950;80;21072;-59
2022/03/24 02:27:11;;;;;;;88.52;52.00;;;;;;;-3.58;67.46;100912.61;1771090;79;21034;-59
2022/03/24 02:29:38;;;;;;;95.85;53.90;;;;;;;-3.53;67.69;100908.48;1760825;80;21005;-59
2022/03/24 02:32:08;;;;;;;87.60;51.45;;;;;;;-3.49;67.73;100902.66;1748481;80;22699;-60
2022/03/24 02:34:47;;;;;;;79.82;47.35;;;;;;;-3.46;67.80;100905.30;1745111;80;20944;-60
2022/03/24 02:37:13;;;;;;;92.00;51.70;;;;;;;-3.45;67.71;100905.73;1745531;80;21767;-60
2022/03/24 02:39:46;;;;;;;83.30;50.03;;;;;;;-3.50;67.68;100898.38;1742335;80;21488;-59
2022/03/24 02:42:17;;;;;;;93.12;53.23;;;;;;;-3.53;67.67;100903.38;1757792;80;21091;-59
2022/03/24 02:44:47;;;;;;;85.95;49.45;;;;;;;-3.54;67.75;100905.91;1755923;80;20987;-59
2022/03/24 02:47:16;;;;;;;90.53;49.45;;;;;;;-3.55;67.81;100907.59;1767852;81;21017;-59
2022/03/24 02:49:47;;;;;;;90.07;53.13;;;;;;;-3.61;67.72;100903.17;1760674;79;21128;-59
2022/03/24 02:52:15;;;;;;;77.70;46.77;;;;;;;-3.65;67.78;100906.86;1762416;81;20919;-59
2022/03/24 02:54:43;;;;;;;89.32;48.20;;;;;;;-3.66;67.99;100908.97;1771835;79;21075;-59
2022/03/24 02:57:11;;;;;;;;;;;;;;;-3.66;68.05;100904.73;1773588;81;21010;-58
2022/03/24 02:59:38;;;;;;;89.20;50.28;;;;;;;-3.63;68.31;100914.16;1753764;80;20151;-59
2022/03/24 03:02:13;;;;;;;88.60;50.50;;;;;;;-3.59;68.34;100905.76;1747258;81;24265;-59
2022/03/24 03:04:41;;;;;;;89.35;50.43;;;;;;;-3.55;68.45;100911.42;1773449;79;20993;-60
2022/03/24 03:07:08;;;;;;;88.97;52.62;;;;;;;-3.50;68.50;100895.83;1766208;80;21045;-60
2022/03/24 03:09:39;;;;;;;83.78;48.52;;;;;;;-3.51;68.28;100904.30;1771721;80;20942;-60
2022/03/24 03:12:09;;;;;;;87.33;47.80;;;;;;;-3.55;68.26;100905.04;1764367;80;21003;-60
2022/03/24 03:14:38;;;;;;;83.25;47.62;;;;;;;-3.61;68.21;100899.77;1759322;80;21483;-60
2022/03/24 03:17:06;;;;;;;79.60;47.35;;;;;;;-3.64;68.29;100904.75;1760839;80;20953;-60
2022/03/24 03:19:34;;;;;;;78.02;44.65;;;;;;;-3.68;68.21;100902.95;1761360;80;21025;-60
2022/03/24 03:22:01;;;;;;;77.42;43.90;;;;;;;-3.73;68.34;100903.22;1758987;80;20982;-60
2022/03/24 03:24:30;;;;;;;78.15;45.78;;;;;;;-3.72;68.55;100901.14;1765839;80;21358;-59
2022/03/24 03:26:57;;;;;;;76.80;43.80;;;;;;;-3.67;68.68;100900.45;1749507;80;21491;-60
2022/03/24 03:29:23;;;;;;;85.57;45.87;;;;;;;-3.62;68.76;100898.02;1760753;81;21011;-59
2022/03/24 03:31:54;;;;;;;73.72;41.15;;;;;;;-3.57;68.78;100904.13;1781807;80;21654;-60
2022/03/24 03:34:24;;;;;;;67.35;39.42;;;;;;;-3.57;68.64;100901.56;1754431;80;21018;-60
2022/03/24 03:36:49;;;;;;;64.85;39.42;;;;;;;-3.64;68.54;100899.64;1754597;81;20986;-60
2022/03/24 03:39:15;;;;;;;68.13;40.90;;;;;;;-3.68;68.73;100898.70;1748092;81;21415;-60
2022/03/24 03:41:42;;;;;;;67.78;39.78;;;;;;;-3.67;68.90;100908.50;1761116;80;21045;-60
2022/03/24 03:44:09;;;;;;;70.20;39.13;;;;;;;-3.64;69.05;100909.86;1753348;80;21024;-59
2022/03/24 03:46:36;;;;;;;50.40;33.18;;;;;;;-3.62;69.00;100900.56;1761991;81;21609;-59
2022/03/24 03:49:08;;;;;;;60.60;34.67;;;;;;;-3.55;69.37;100892.28;1759321;81;21604;-60
2022/03/24 03:51:37;;;;;;;64.75;35.33;;;;;;;-3.44;69.55;100906.21;1764938;80;21058;-59
2022/03/24 03:54:11;;;;;;;65.67;39.08;;;;;;;-3.35;69.63;100900.50;1756410;80;20989;-59
2022/03/24 03:56:37;;;;;;;68.45;38.08;;;;;;;-3.31;69.47;100898.47;1758946;81;22238;-60
2022/03/24 03:59:05;;;;;;;68.60;36.83;;;;;;;-3.28;69.37;100900.24;1762897;81;21638;-59
2022/03/24 04:01:32;;;;;;;65.75;37.83;;;;;;;-3.32;69.22;100900.58;1770926;80;20946;-60
2022/03/24 04:03:59;;;;;;;91.92;38.98;;;;;;;-3.33;69.25;100896.69;1763849;80;21132;-60
2022/03/24 04:06:26;;;;;;;83.52;39.78;;;;;;;-3.33;69.32;100897.97;1761591;81;26687;-60
2022/03/24 04:08:53;;;;;;;71.07;39.60;;;;;;;-3.34;69.24;100898.80;1759878;81;21009;-60
2022/03/24 04:11:20;;;;;;;74.75;38.10;;;;;;;-3.37;69.29;100901.72;1762522;80;21732;-60
2022/03/24 04:13:47;;;;;;;68.17;37.63;;;;;;;-3.41;69.25;100897.77;1763056;80;20959;-60
2022/03/24 04:16:14;;;;;;;54.15;33.28;;;;;;;-3.43;69.31;100900.27;1759600;80;21473;-59
2022/03/24 04:18:46;;;;;;;95.83;34.67;;;;;;;-3.47;69.35;100898.47;1742568;81;20973;-60
2022/03/24 04:21:13;;;;;;;92.95;32.78;;;;;;;-3.48;69.52;100898.41;1742257;80;21006;-60
2022/03/24 04:23:42;;;;;;;59.37;32.13;;;;;;;-3.43;69.81;100907.94;1734296;81;21024;-59
2022/03/24 04:26:11;;;;;;;65.70;31.00;;;;;;;-3.31;70.00;100903.99;1737691;80;21084;-59
2022/03/24 04:28:38;;;;;;;128.38;34.88;;;;;;;-3.22;70.11;100906.79;1744131;81;21125;-59
2022/03/24 04:31:04;;;;;;;113.15;37.60;;;;;;;-3.14;70.24;100905.31;1753488;81;21041;-60
2022/03/24 04:33:31;;;;;;;73.02;32.63;;;;;;;-3.06;70.20;100911.50;1742608;81;20958;-60
2022/03/24 04:35:59;;;;;;;77.80;32.23;;;;;;;-3.01;70.25;100904.83;1740669;81;21052;-59
2022/03/24 04:38:26;;;;;;;84.40;33.90;;;;;;;-2.95;70.22;100910.09;1746883;80;21049;-59
2022/03/24 04:40:56;;;;;;;55.55;31.33;;;;;;;-2.92;70.05;100910.17;1741620;81;21277;-59
2022/03/24 04:43:24;;;;;;;67.20;34.48;;;;;;;-2.88;70.16;100902.62;1748159;80;21704;-60
2022/03/24 04:45:51;;;;;;;64.05;32.53;;;;;;;-2.87;70.03;100904.33;1744671;80;20994;-59
2022/03/24 04:48:18;;;;;;;67.97;32.45;;;;;;;-2.80;70.08;100908.77;1745559;81;21288;-59
2022/03/24 04:50:45;;;;;;;;;;;;;;;-2.84;69.79;100907.83;1745513;81;20973;-59
2022/03/24 04:53:14;;;;;;;58.15;33.02;;;;;;;-2.88;69.88;100901.34;1740968;80;21736;-60
2022/03/24 04:55:42;;;;;;;62.20;34.27;;;;;;;-2.79;70.12;100911.37;1741225;81;20943;-60
2022/03/24 04:58:10;;;;;;;63.95;35.52;;;;;;;-2.54;70.21;100907.75;1740264;81;20962;-59
2022/03/24 05:00:37;;;;;;;68.78;36.90;;;;;;;-2.21;70.25;100909.41;1740232;80;21013;-59
2022/03/24 05:03:04;;;;;;;72.58;35.48;;;;;;;-1.86;70.09;100904.20;1739771;80;20985;-59
2022/03/24 05:05:30;;;;;;;;;;;;;;;-1.50;69.98;100898.15;1747872;80;21303;-60
2022/03/24 05:07:57;;;;;;;64.92;33.60;;;;;;;-1.09;69.91;100892.95;1742716;80;20365;-59
2022/03/24 05:10:24;;;;;;;53.30;32.42;;;;;;;-0.74;69.45;100892.33;1744830;80;20946;-60
2022/03/24 05:12:50;;;;;;;61.20;31.50;;;;;;;-0.45;69.17;100881.26;1745140;81;21506;-59
2022/03/24 05:15:17;;;;;;;53.10;32.70;;;;;;;-0.11;69.08;100883.06;1746788;80;20981;-60
2022/03/24 05:17:44;;;;;;;53.57;31.23;;;;;;;0.28;69.12;100879.33;1743091;80;21959;-60
2022/03/24 05:20:12;;;;;;;86.70;36.13;;;;;;;0.66;69.20;100863.10;1736311;80;21688;-59
2022/03/24 05:22:38;;;;;;;;;;;;;;;1.29;69.32;100876.63;1746598;81;21565;-59
2022/03/24 05:25:05;;;;;;;64.53;36.00;;;;;;;1.90;69.21;100882.22;1712055;81;20187;-59
2022/03/24 05:27:32;;;;;;;;;;;;;;;2.53;69.63;100874.84;1735292;80;21119;-60
2022/03/24 05:29:59;;;;;;;59.27;32.85;;;;;;;3.27;69.08;100872.00;1723227;82;21038;-60
2022/03/24 05:32:27;;;;;;;57.50;32.15;;;;;;;3.78;68.63;100866.42;1723133;82;21026;-60
2022/03/24 05:34:54;;;;;;;;;;;;;;;4.37;68.58;100866.27;1724593;81;21073;-60
2022/03/24 05:37:25;;;;;;;;;;;;;;;4.84;68.12;100860.02;1726115;81;20166;-60
2022/03/24 05:39:52;;;;;;;52.88;25.15;;;;;;;5.36;68.24;100867.45;1733706;82;20135;-60
2022/03/24 05:42:18;;;;;;;39.18;24.27;;;;;;;5.87;68.07;100853.62;1732603;82;21439;-60
2022/03/24 05:44:45;;;;;;;41.60;24.60;;;;;;;6.34;68.07;100850.13;1730661;82;21014;-60
2022/03/24 05:47:12;;;;;;;64.63;28.47;;;;;;;6.74;67.59;100853.07;1726250;82;20971;-59
2022/03/24 05:49:39;;;;;;;57.65;27.80;;;;;;;7.00;66.93;100851.84;1737244;82;21006;-59
2022/03/24 05:52:07;;;;;;;46.98;23.52;;;;;;;7.24;67.03;100846.29;1742692;82;20995;-59
2022/03/24 05:54:33;;;;;;;44.53;24.15;;;;;;;7.55;66.86;100847.94;1734831;82;21105;-59
2022/03/24 05:57:00;;;;;;;39.95;21.20;;;;;;;7.89;66.77;100846.05;1760776;80;21594;-59
2022/03/24 05:59:27;;;;;;;34.40;21.25;;;;;;;8.18;66.52;100844.67;1765373;81;20986;-60
2022/03/24 06:01:58;;;;;;;34.13;21.40;;;;;;;8.46;66.26;100843.25;1760367;79;20959;-60
2022/03/24 06:04:25;;;;;;;26.35;21.15;;;;;;;8.86;66.82;100840.23;1757182;80;20961;-59
2022/03/24 06:06:55;;;;;;;;;;;;;;;9.09;65.88;100848.83;1736603;79;21131;-59
2022/03/24 06:09:21;;;;;;;36.45;20.88;;;;;;;9.39;65.85;100839.42;1760586;81;20449;-61
2022/03/24 06:11:48;;;;;;;35.58;21.45;;;;;;;9.73;66.36;100841.19;1777444;80;21605;-60
2022/03/24 06:14:16;;;;;;;29.48;22.87;;;;;;;9.94;65.94;100843.23;1772344;80;20998;-61
2022/03/24 06:16:43;;;;;;;32.95;21.20;;;;;;;10.29;66.47;100843.59;1780123;79;22272;-61
2022/03/24 06:19:17;;;;;;;79.62;25.15;;;;;;;10.53;65.81;100837.27;1776979;80;21649;-60
2022/03/24 06:21:44;;;;;;;49.30;21.82;;;;;;;10.64;65.91;100852.60;1771373;80;21057;-61
2022/03/24 06:24:11;;;;;;;33.58;20.45;;;;;;;10.61;65.24;100850.09;1779390;80;26509;-62
2022/03/24 06:26:40;;;;;;;34.03;20.65;;;;;;;10.88;65.65;100843.19;1766169;80;21009;-60
2022/03/24 06:29:11;;;;;;;100.12;25.23;;;;;;;11.01;65.02;100843.65;1775051;80;21036;-61
2022/03/24 06:31:36;;;;;;;37.85;20.62;;;;;;;11.25;65.64;100848.11;1780499;79;21571;-60
2022/03/24 06:34:04;;;;;;;31.93;21.55;;;;;;;11.42;64.76;100852.33;1784270;80;22743;-60
2022/03/24 06:36:32;;;;;;;28.32;21.73;;;;;;;11.55;65.09;100845.41;1787975;80;21029;-60
2022/03/24 06:38:59;;;;;;;37.93;21.70;;;;;;;11.73;64.88;100843.46;1775875;80;21523;-60
2022/03/24 06:41:27;;;;;;;26.55;21.33;;;;;;;12.03;64.81;100850.74;1776522;80;21101;-60
2022/03/24 06:43:57;;;;;;;40.03;22.20;;;;;;;12.22;64.43;100849.64;1758370;80;20907;-60
2022/03/24 06:46:25;;;;;;;29.75;22.45;;;;;;;12.14;64.06;100854.75;1788052;79;20950;-60
2022/03/24 06:48:52;;;;;;;31.20;21.35;;;;;;;12.30;63.72;100847.59;1787890;80;20891;-64
2022/03/24 06:51:19;;;;;;;72.25;21.82;;;;;;;12.20;62.94;100842.28;1780512;80;21017;-60
2022/03/24 06:53:45;;;;;;;28.05;20.52;;;;;;;12.26;62.98;100846.45;1758112;80;26541;-61
2022/03/24 06:56:15;;;;;;;27.85;20.05;;;;;;;12.20;62.81;100844.91;1780900;79;22039;-60
2022/03/24 06:58:43;;;;;;;29.65;20.45;;;;;;;12.12;61.89;100852.17;1765638;80;20977;-61
2022/03/24 07:01:11;;;;;;;36.08;21.02;;;;;;;12.07;62.45;100850.17;1775890;80;21507;-61
2022/03/24 07:03:38;;;;;;;29.42;20.97;;;;;;;12.10;62.28;100846.16;1783988;80;21511;-61
2022/03/24 07:06:05;;;;;;;46.28;22.00;;;;;;;12.06;61.88;100849.78;1789357;79;21027;-60
2022/03/24 07:08:32;;;;;;;37.53;20.40;;;;;;;12.25;62.16;100848.22;1773593;79;22033;-60
2022/03/24 07:11:06;;;;;;;33.25;20.57;;;;;;;12.34;61.30;100848.80;1774292;79;22255;-61
2022/03/24 07:16:22;;;;;;;26.97;19.70;;;;;;;11.81;61.13;100861.06;1696342;82;21515;-60
2022/03/24 07:18:48;;;;;;;38.65;18.90;;;;;;;11.32;61.07;100854.86;1720726;82;20969;-60
2022/03/24 07:21:15;;;;;;;31.52;20.10;;;;;;;11.01;60.86;100859.33;1709215;82;21144;-60
2022/03/24 07:23:42;;;;;;;27.58;18.42;;;;;;;10.51;60.91;100858.20;1695440;82;21043;-62
2022/03/24 07:26:09;;;;;;;31.33;18.85;;;;;;;10.29;60.79;100854.48;1694598;82;28212;-60
2022/03/24 07:28:36;;;;;;;35.88;19.45;;;;;;;9.95;60.65;100860.59;1708418;82;20970;-60
2022/03/24 07:31:15;;;;;;;39.98;19.67;;;;;;;9.74;60.63;100863.75;1696606;82;21065;-60
2022/03/24 07:33:43;;;;;;;27.07;17.00;;;;;;;9.56;60.52;100859.41;1681928;83;21920;-61
2022/03/24 07:36:10;;;;;;;33.15;17.35;;;;;;;9.49;60.23;100872.17;1702414;82;21625;-61
2022/03/24 07:38:37;;;;;;;28.02;18.07;;;;;;;9.36;60.26;100869.48;1711170;82;21077;-60
2022/03/24 07:41:04;;;;;;;26.60;17.87;;;;;;;9.32;60.23;100869.12;1679060;82;20954;-60
2022/03/24 07:43:31;;;;;;;44.25;18.45;;;;;;;9.26;59.35;100865.37;1710698;82;21020;-61
2022/03/24 07:46:14;;;;;;;27.27;16.57;;;;;;;9.06;59.39;100874.50;1710818;82;21116;-60
2022/03/24 07:48:30;;;;;;;29.18;15.93;;;;;;;9.06;59.17;100873.20;1699269;82;21213;-59
2022/03/24 07:50:59;;;;;;;23.20;16.10;;;;;;;9.01;59.39;100856.80;1703708;82;20986;-59
2022/03/24 07:53:49;;;;;;;54.13;17.45;;;;;;;9.01;59.39;100856.80;1712983;82;21162;-59
2022/03/24 07:56:19;;;;;;;70.90;20.10;;;;;;;9.11;59.13;100866.14;1710797;82;21056;-59
2022/03/24 07:58:47;;;;;;;54.48;17.57;;;;;;;9.27;59.09;100878.80;1711656;82;21079;-58
2022/03/24 08:01:14;;;;;;;24.57;16.90;;;;;;;9.39;58.99;100881.13;1711049;82;20988;-59
2022/03/24 08:03:43;;;;;;;21.33;14.83;;;;;;;9.55;59.03;100870.75;1689736;82;20918;-59
2022/03/24 08:06:10;;;;;;;21.52;15.05;;;;;;;9.73;58.71;100863.35;1712624;82;21012;-59
2022/03/24 08:08:37;;;;;;;22.77;14.70;;;;;;;9.73;58.71;100863.35;1707384;82;20969;-59
2022/03/24 08:11:05;;;;;;;20.72;14.68;;;;;;;9.90;58.50;100874.20;1711397;82;21134;-58
2022/03/24 08:13:34;;;;;;;20.52;14.55;;;;;;;9.97;58.61;100874.46;1710897;82;21535;-60
2022/03/24 08:16:02;;;;;;;42.43;14.70;;;;;;;10.09;58.31;100878.49;1711840;82;21793;-59
2022/03/24 08:18:31;;;;;;;76.95;15.70;;;;;;;10.20;58.05;100871.69;1712011;82;21566;-59
2022/03/24 08:20:58;;;;;;;28.75;12.82;;;;;;;10.09;57.19;100871.52;1710359;82;21034;-60
2022/03/24 08:23:25;;;;;;;32.40;12.98;;;;;;;10.09;57.19;100871.52;1706403;82;22361;-59
2022/03/24 08:25:53;;;;;;;39.83;14.98;;;;;;;10.21;57.58;100872.08;1707771;82;21475;-59
2022/03/24 08:28:19;;;;;;;20.60;13.22;;;;;;;10.11;56.84;100867.99;1710781;82;21772;-60
2022/03/24 08:30:46;;;;;;;31.90;15.40;;;;;;;10.11;56.84;100867.99;1708511;82;20952;-59
2022/03/24 08:33:13;;;;;;;17.27;13.73;;;;;;;10.41;56.98;100873.70;1707350;82;21009;-59
2022/03/24 08:35:46;;;;;;;79.62;16.25;;;;;;;10.41;56.98;100873.70;1710307;83;21049;-60
2022/03/24 08:38:13;;;;;;;22.57;13.90;;;;;;;10.54;57.05;100870.31;1713465;82;21661;-61
2022/03/24 08:40:39;;;;;;;22.87;14.10;;;;;;;10.68;56.90;100869.91;1701812;82;21048;-60
2022/03/24 08:43:07;;;;;;;23.37;13.33;;;;;;;10.80;56.34;100877.37;1707878;82;20989;-60
2022/03/24 08:45:37;;;;;;;22.95;13.40;;;;;;;10.82;56.26;100880.80;1708887;82;20965;-59
2022/03/24 08:48:06;;;;;;;23.12;12.78;;;;;;;10.69;55.35;100874.23;1711065;82;21080;-59
2022/03/24 08:50:36;;;;;;;21.65;12.35;;;;;;;10.55;53.93;100878.54;1711828;82;20926;-59
2022/03/24 08:53:04;;;;;;;20.62;12.78;;;;;;;10.29;54.16;100883.20;1709223;82;21151;-60
2022/03/24 08:55:32;;;;;;;120.70;16.52;;;;;;;10.05;52.93;100888.16;1710968;82;21033;-59
2022/03/24 08:57:59;;;;;;;18.32;12.00;;;;;;;10.01;53.43;100885.21;1707268;82;21050;-60
2022/03/24 09:00:26;;;;;;;16.40;11.28;;;;;;;10.02;53.41;100886.91;1708864;82;21479;-59
2022/03/24 09:02:54;;;;;;;19.15;12.20;;;;;;;10.02;53.83;100892.59;1705632;82;21139;-59
2022/03/24 09:05:37;;;;;;;17.90;11.53;;;;;;;10.03;53.07;100888.64;1707707;82;21070;-59
2022/03/24 09:08:05;;;;;;;19.80;11.65;;;;;;;10.00;53.54;100892.64;1708879;82;21094;-60
2022/03/24 09:10:32;;;;;;;;;;;;;;;9.94;53.35;100889.31;1712167;82;20918;-60
2022/03/24 09:12:59;;;;;;;12.75;10.88;;;;;;;9.85;51.42;100894.33;1710530;82;21383;-59
2022/03/24 09:15:29;;;;;;;17.75;11.85;;;;;;;9.79;50.37;100887.97;1704562;82;21629;-59
2022/03/24 09:17:56;;;;;;;23.38;12.37;;;;;;;9.81;52.76;100886.19;1689524;83;21033;-60
2022/03/24 09:20:25;;;;;;;15.20;11.95;;;;;;;9.73;51.93;100867.27;1695755;83;21108;-60
2022/03/24 09:22:53;;;;;;;25.15;12.05;;;;;;;9.84;52.28;100899.14;1694793;83;21507;-60
2022/03/24 09:25:20;;;;;;;22.37;11.30;;;;;;;9.77;51.96;100889.75;1670133;84;21124;-60
2022/03/24 09:27:48;;;;;;;;;;;;;;;9.79;51.51;100899.70;1673948;84;21014;-59
2022/03/24 09:30:18;;;;;;;16.57;13.10;;;;;;;9.85;52.25;100887.80;1672498;85;20156;-59
2022/03/24 09:33:08;;;;;;;18.45;12.05;;;;;;;9.82;52.07;100879.61;1628688;86;21037;-59
2022/03/24 09:35:35;;;;;;;17.20;10.78;;;;;;;10.18;52.30;100895.20;1636399;86;21111;-61
2022/03/24 09:38:03;;;;;;;30.65;12.85;;;;;;;10.18;52.30;100895.20;1639598;85;21087;-59
2022/03/24 09:40:30;;;;;;;16.20;12.70;;;;;;;10.26;52.41;100893.70;1652079;85;21049;-59
2022/03/24 09:43:00;;;;;;;16.85;12.40;;;;;;;10.41;51.96;100905.50;1658938;85;21077;-60
2022/03/24 09:45:26;;;;;;;18.30;11.73;;;;;;;10.44;51.80;100905.41;1650903;85;21052;-59
2022/03/24 09:47:53;;;;;;;16.17;12.45;;;;;;;10.50;51.92;100895.66;1654984;85;21046;-59
2022/03/24 09:50:25;;;;;;;15.53;10.98;;;;;;;10.52;50.91;100899.06;1643852;86;21198;-59
2022/03/24 09:52:53;;;;;;;20.92;11.83;;;;;;;10.58;51.24;100890.66;1657161;85;22089;-59
2022/03/24 09:55:21;;;;;;;17.52;11.20;;;;;;;10.58;51.24;100890.66;1654128;85;20974;-59
2022/03/24 09:57:49;;;;;;;16.50;12.23;;;;;;;10.48;51.72;100894.84;1655659;85;20977;-59
2022/03/24 10:00:17;;;;;;;16.77;13.38;;;;;;;10.60;51.62;100898.01;1657698;85;21030;-60
2022/03/24 10:03:03;;;;;;;17.82;12.58;;;;;;;10.49;50.75;100893.08;1655045;85;21109;-59
2022/03/24 10:05:30;;;;;;;;;;;;;;;10.50;51.64;100895.66;1656167;85;21567;-58
2022/03/24 10:08:05;;;;;;;19.37;11.63;;;;;;;10.48;50.81;100893.54;1624978;86;20223;-58
2022/03/24 10:10:41;;;;;;;25.45;12.75;;;;;;;10.53;51.03;100898.19;1646752;87;21034;-59
2022/03/24 10:13:10;;;;;;;14.53;11.70;;;;;;;10.61;50.65;100894.48;1639761;87;20997;-60
2022/03/24 10:15:40;;;;;;;14.85;11.35;;;;;;;10.71;51.01;100894.18;1641458;86;21005;-60
2022/03/24 10:18:12;;;;;;;16.20;11.00;;;;;;;10.80;51.20;100894.81;1643291;85;21096;-60
2022/03/24 10:20:39;;;;;;;17.10;12.33;;;;;;;10.95;51.13;100897.84;1653888;85;22080;-60
2022/03/24 10:23:07;;;;;;;;;;;;;;;10.82;50.45;100888.64;1657217;85;20979;-60
2022/03/24 10:25:40;;;;;;;21.95;11.38;;;;;;;10.88;50.34;100894.98;1634168;86;20155;-60
2022/03/24 10:28:10;;;;;;;16.93;11.18;;;;;;;10.94;50.69;100891.34;1647066;85;21610;-60
2022/03/24 10:31:00;;;;;;;18.02;10.95;;;;;;;10.91;48.84;100893.59;1648295;85;21621;-60
2022/03/24 10:33:35;;;;;;;13.90;10.10;;;;;;;10.81;49.64;100897.39;1626796;86;21022;-58
2022/03/24 10:36:09;;;;;;;17.27;10.90;;;;;;;10.93;50.20;100902.25;1618175;86;21621;-58
2022/03/24 10:38:45;;;;;;;14.95;10.53;;;;;;;10.83;48.83;100875.98;1624266;85;21756;-58
2022/03/24 10:41:24;;;;;;;13.20;9.83;;;;;;;10.91;49.93;100889.67;1629608;86;21045;-58
2022/03/24 10:43:54;;;;;;;19.17;10.30;;;;;;;10.92;47.53;100894.02;1617667;87;20946;-59
2022/03/24 10:46:25;;;;;;;11.25;8.43;;;;;;;10.96;49.40;100881.25;1613656;87;21048;-59
2022/03/24 10:48:53;;;;;;;11.45;8.50;;;;;;;11.07;48.83;100887.91;1612645;87;20997;-59
2022/03/24 10:51:32;;;;;;;15.80;9.23;;;;;;;11.18;49.04;100883.20;1631607;87;21047;-59
2022/03/24 10:54:48;;;;;;;11.75;9.03;;;;;;;11.28;48.94;100874.15;1627378;87;21209;-61
2022/03/24 10:57:20;;;;;;;17.23;9.03;;;;;;;11.32;48.96;100883.63;1620405;87;21135;-61
2022/03/24 10:59:58;;;;;;;10.75;8.35;;;;;;;11.48;48.72;100883.12;1625582;87;20946;-60
2022/03/24 11:02:27;;;;;;;11.53;8.25;;;;;;;11.46;48.64;100883.19;1627344;86;21494;-59
2022/03/24 11:04:59;;;;;;;18.17;9.18;;;;;;;11.50;48.98;100870.86;1601153;88;21532;-60
2022/03/24 11:07:28;;;;;;;22.27;9.45;;;;;;;11.67;49.15;100872.45;1625844;86;21775;-60
2022/03/24 11:10:00;;;;;;;13.65;8.35;;;;;;;11.79;49.21;100874.68;1619126;87;20992;-62
2022/03/24 11:12:36;;;;;;;12.85;7.55;;;;;;;11.80;48.01;100876.38;1611684;87;21033;-61
2022/03/24 11:15:03;;;;;;;;;;;;;;;11.74;46.09;100875.28;1630626;86;20995;-60
2022/03/24 11:17:35;;;;;;;13.58;8.18;;;;;;;11.61;45.78;100880.52;1630544;86;20101;-59
2022/03/24 11:20:10;;;;;;;12.35;7.80;;;;;;;11.58;46.70;100876.69;1630170;86;21088;-60
2022/03/24 11:23:16;;;;;;;10.75;7.20;;;;;;;11.53;46.23;100870.75;1627197;86;21037;-59
2022/03/24 11:25:43;;;;;;;13.65;7.80;;;;;;;11.51;46.84;100883.90;1601872;88;21108;-60